sensor_id;sensor_type;location;lat;lon;timestamp;temperature;humidity
10883;DHT22;5494;51.796;10.952;2023-02-19T00:01:48;9.40;99.90
10883;DHT22;5494;51.796;10.952;2023-02-19T00:04:20;9.30;99.90
10883;DHT22;5494;51.796;10.952;2023-02-19T00:06:49;9.30;99.90
10883;DHT22;5494;51.796;10.952;2023-02-19T00:09:18;9.30;99.90
10883;DHT22;5494;51.796;10.952;2023-02-19T00:11:48;9.20;99.90
10883;DHT22;5494;51.796;10.952;2023-02-19T00:14:18;9.30;99.90
10883;DHT22;5494;51.796;10.952;2023-02-19T00:16:47;9.20;99.90
10883;DHT22;5494;51.796;10.952;2023-02-19T00:19:18;9.20;99.90
10883;DHT22;5494;51.796;10.952;2023-02-19T00:21:49;9.10;99.90
10883;DHT22;5494;51.796;10.952;2023-02-19T00:24:18;9.00;99.90
10883;DHT22;5494;51.796;10.952;2023-02-19T00:26:48;9.00;99.90
10883;DHT22;5494;51.796;10.952;2023-02-19T00:29:20;9.00;99.90
10883;DHT22;5494;51.796;10.952;2023-02-19T00:31:50;9.00;99.90
10883;DHT22;5494;51.796;10.952;2023-02-19T00:34:18;9.00;99.90
10883;DHT22;5494;51.796;10.952;2023-02-19T00:36:47;9.10;99.90
10883;DHT22;5494;51.796;10.952;2023-02-19T00:39:16;9.10;99.90
10883;DHT22;5494;51.796;10.952;2023-02-19T00:41:45;9.10;99.90
10883;DHT22;5494;51.796;10.952;2023-02-19T00:44:15;9.10;99.90
10883;DHT22;5494;51.796;10.952;2023-02-19T00:46:45;9.00;99.90
10883;DHT22;5494;51.796;10.952;2023-02-19T00:49:17;9.00;99.90
10883;DHT22;5494;51.796;10.952;2023-02-19T00:51:46;8.90;99.90
10883;DHT22;5494;51.796;10.952;2023-02-19T00:54:18;8.90;99.90
10883;DHT22;5494;51.796;10.952;2023-02-19T00:56:48;9.00;99.90
10883;DHT22;5494;51.796;10.952;2023-02-19T00:59:18;8.90;99.90
10883;DHT22;5494;51.796;10.952;2023-02-19T01:01:46;8.90;99.90
10883;DHT22;5494;51.796;10.952;2023-02-19T01:04:16;8.90;99.90
10883;DHT22;5494;51.796;10.952;2023-02-19T01:06:44;8.90;99.90
10883;DHT22;5494;51.796;10.952;2023-02-19T01:09:14;8.80;99.90
10883;DHT22;5494;51.796;10.952;2023-02-19T01:11:42;8.80;99.90
10883;DHT22;5494;51.796;10.952;2023-02-19T01:14:11;8.80;99.90
10883;DHT22;5494;51.796;10.952;2023-02-19T01:16:40;8.80;99.90
10883;DHT22;5494;51.796;10.952;2023-02-19T01:19:08;8.90;99.90
10883;DHT22;5494;51.796;10.952;2023-02-19T01:21:38;8.90;99.90
10883;DHT22;5494;51.796;10.952;2023-02-19T01:24:08;8.90;99.90
10883;DHT22;5494;51.796;10.952;2023-02-19T01:26:37;8.90;99.90
10883;DHT22;5494;51.796;10.952;2023-02-19T01:29:06;8.90;99.90
10883;DHT22;5494;51.796;10.952;2023-02-19T01:31:34;8.90;99.90
10883;DHT22;5494;51.796;10.952;2023-02-19T01:34:05;8.90;99.90
10883;DHT22;5494;51.796;10.952;2023-02-19T01:36:33;8.90;99.90
10883;DHT22;5494;51.796;10.952;2023-02-19T01:39:04;8.90;99.90
10883;DHT22;5494;51.796;10.952;2023-02-19T01:41:35;8.90;99.90
10883;DHT22;5494;51.796;10.952;2023-02-19T01:44:07;8.90;99.90
10883;DHT22;5494;51.796;10.952;2023-02-19T01:47:15;8.90;99.90
10883;DHT22;5494;51.796;10.952;2023-02-19T01:49:49;8.90;99.90
10883;DHT22;5494;51.796;10.952;2023-02-19T01:52:24;8.90;99.90
10883;DHT22;5494;51.796;10.952;2023-02-19T01:54:58;8.90;99.90
10883;DHT22;5494;51.796;10.952;2023-02-19T01:57:32;8.80;99.90
10883;DHT22;5494;51.796;10.952;2023-02-19T02:00:07;8.90;99.90
10883;DHT22;5494;51.796;10.952;2023-02-19T02:02:41;8.90;99.90
10883;DHT22;5494;51.796;10.952;2023-02-19T02:05:20;8.90;99.90
10883;DHT22;5494;51.796;10.952;2023-02-19T02:07:54;8.90;99.90
10883;DHT22;5494;51.796;10.952;2023-02-19T02:10:40;8.90;99.90
10883;DHT22;5494;51.796;10.952;2023-02-19T02:13:09;8.80;99.90
10883;DHT22;5494;51.796;10.952;2023-02-19T02:15:43;8.90;99.90
10883;DHT22;5494;51.796;10.952;2023-02-19T02:18:36;8.90;99.90
10883;DHT22;5494;51.796;10.952;2023-02-19T02:21:30;8.90;99.90
10883;DHT22;5494;51.796;10.952;2023-02-19T02:24:16;8.90;99.90
10883;DHT22;5494;51.796;10.952;2023-02-19T02:27:11;8.90;99.90
10883;DHT22;5494;51.796;10.952;2023-02-19T02:33:18;8.90;99.90
10883;DHT22;5494;51.796;10.952;2023-02-19T02:35:56;8.90;99.90
10883;DHT22;5494;51.796;10.952;2023-02-19T02:38:29;8.90;99.90
10883;DHT22;5494;51.796;10.952;2023-02-19T02:41:01;8.90;99.90
10883;DHT22;5494;51.796;10.952;2023-02-19T02:43:31;8.90;99.90
10883;DHT22;5494;51.796;10.952;2023-02-19T02:46:01;8.90;99.90
10883;DHT22;5494;51.796;10.952;2023-02-19T02:48:34;8.90;99.90
10883;DHT22;5494;51.796;10.952;2023-02-19T02:51:13;8.90;99.90
10883;DHT22;5494;51.796;10.952;2023-02-19T02:54:04;8.90;99.90
10883;DHT22;5494;51.796;10.952;2023-02-19T02:56:54;8.90;99.90
10883;DHT22;5494;51.796;10.952;2023-02-19T02:59:28;8.90;99.90
10883;DHT22;5494;51.796;10.952;2023-02-19T03:02:04;8.90;99.90
10883;DHT22;5494;51.796;10.952;2023-02-19T03:04:44;8.90;99.90
10883;DHT22;5494;51.796;10.952;2023-02-19T03:07:38;8.90;99.90
10883;DHT22;5494;51.796;10.952;2023-02-19T03:10:13;8.90;99.90
10883;DHT22;5494;51.796;10.952;2023-02-19T03:12:44;9.00;99.90
10883;DHT22;5494;51.796;10.952;2023-02-19T03:15:39;9.00;99.90
10883;DHT22;5494;51.796;10.952;2023-02-19T03:18:32;9.00;99.90
10883;DHT22;5494;51.796;10.952;2023-02-19T03:21:23;9.00;99.90
10883;DHT22;5494;51.796;10.952;2023-02-19T03:23:55;9.10;99.90
10883;DHT22;5494;51.796;10.952;2023-02-19T03:26:43;9.10;99.90
10883;DHT22;5494;51.796;10.952;2023-02-19T03:29:23;9.00;99.90
10883;DHT22;5494;51.796;10.952;2023-02-19T03:32:03;9.00;99.90
10883;DHT22;5494;51.796;10.952;2023-02-19T03:34:39;8.90;99.90
10883;DHT22;5494;51.796;10.952;2023-02-19T03:37:14;8.90;99.90
10883;DHT22;5494;51.796;10.952;2023-02-19T03:39:47;8.90;99.90
10883;DHT22;5494;51.796;10.952;2023-02-19T03:42:23;8.80;99.90
10883;DHT22;5494;51.796;10.952;2023-02-19T03:45:23;8.80;99.90
10883;DHT22;5494;51.796;10.952;2023-02-19T03:48:06;8.80;99.90
10883;DHT22;5494;51.796;10.952;2023-02-19T03:50:59;8.80;99.90
10883;DHT22;5494;51.796;10.952;2023-02-19T03:53:45;8.80;99.90
10883;DHT22;5494;51.796;10.952;2023-02-19T03:56:24;8.80;99.90
10883;DHT22;5494;51.796;10.952;2023-02-19T03:59:00;8.80;99.90
10883;DHT22;5494;51.796;10.952;2023-02-19T04:01:40;8.90;99.90
10883;DHT22;5494;51.796;10.952;2023-02-19T04:04:15;9.00;99.90
10883;DHT22;5494;51.796;10.952;2023-02-19T04:06:51;9.00;99.90
10883;DHT22;5494;51.796;10.952;2023-02-19T04:09:22;9.00;99.90
10883;DHT22;5494;51.796;10.952;2023-02-19T04:12:01;9.10;99.90
10883;DHT22;5494;51.796;10.952;2023-02-19T04:14:38;9.00;99.90
10883;DHT22;5494;51.796;10.952;2023-02-19T04:17:15;9.10;99.90
10883;DHT22;5494;51.796;10.952;2023-02-19T04:19:49;9.10;99.90
10883;DHT22;5494;51.796;10.952;2023-02-19T04:22:21;9.10;99.90
10883;DHT22;5494;51.796;10.952;2023-02-19T04:24:52;9.10;99.90
10883;DHT22;5494;51.796;10.952;2023-02-19T04:27:22;9.20;99.90
10883;DHT22;5494;51.796;10.952;2023-02-19T04:29:50;9.20;99.90
10883;DHT22;5494;51.796;10.952;2023-02-19T04:32:18;9.20;99.90
10883;DHT22;5494;51.796;10.952;2023-02-19T04:34:46;9.20;99.90
10883;DHT22;5494;51.796;10.952;2023-02-19T04:37:14;9.20;99.90
10883;DHT22;5494;51.796;10.952;2023-02-19T04:39:43;9.30;99.90
10883;DHT22;5494;51.796;10.952;2023-02-19T04:42:11;9.30;99.90
10883;DHT22;5494;51.796;10.952;2023-02-19T04:44:43;9.30;99.90
10883;DHT22;5494;51.796;10.952;2023-02-19T04:47:11;9.20;99.90
10883;DHT22;5494;51.796;10.952;2023-02-19T04:49:38;9.30;99.90
10883;DHT22;5494;51.796;10.952;2023-02-19T04:52:06;9.30;99.90
10883;DHT22;5494;51.796;10.952;2023-02-19T04:54:35;9.40;99.90
10883;DHT22;5494;51.796;10.952;2023-02-19T04:57:04;9.30;99.90
10883;DHT22;5494;51.796;10.952;2023-02-19T04:59:32;9.30;99.90
10883;DHT22;5494;51.796;10.952;2023-02-19T05:02:00;9.40;99.90
10883;DHT22;5494;51.796;10.952;2023-02-19T05:04:28;9.40;99.90
10883;DHT22;5494;51.796;10.952;2023-02-19T05:06:56;9.40;99.90
10883;DHT22;5494;51.796;10.952;2023-02-19T05:09:24;9.40;99.90
10883;DHT22;5494;51.796;10.952;2023-02-19T05:11:52;9.40;99.90
10883;DHT22;5494;51.796;10.952;2023-02-19T05:14:22;9.40;99.90
10883;DHT22;5494;51.796;10.952;2023-02-19T05:16:50;9.30;99.90
10883;DHT22;5494;51.796;10.952;2023-02-19T05:19:18;9.40;99.90
10883;DHT22;5494;51.796;10.952;2023-02-19T05:21:46;9.30;99.90
10883;DHT22;5494;51.796;10.952;2023-02-19T05:24:14;9.10;99.90
10883;DHT22;5494;51.796;10.952;2023-02-19T05:26:42;8.70;99.90
10883;DHT22;5494;51.796;10.952;2023-02-19T05:29:11;8.30;99.90
10883;DHT22;5494;51.796;10.952;2023-02-19T05:31:40;7.90;99.90
10883;DHT22;5494;51.796;10.952;2023-02-19T05:34:08;7.60;99.90
10883;DHT22;5494;51.796;10.952;2023-02-19T05:36:37;7.50;99.90
10883;DHT22;5494;51.796;10.952;2023-02-19T05:39:06;7.60;99.90
10883;DHT22;5494;51.796;10.952;2023-02-19T05:41:35;7.50;99.90
10883;DHT22;5494;51.796;10.952;2023-02-19T05:44:02;7.50;99.90
10883;DHT22;5494;51.796;10.952;2023-02-19T05:46:30;7.40;99.90
10883;DHT22;5494;51.796;10.952;2023-02-19T05:49:00;7.10;99.90
10883;DHT22;5494;51.796;10.952;2023-02-19T05:51:29;7.00;99.90
10883;DHT22;5494;51.796;10.952;2023-02-19T05:53:57;6.70;99.90
10883;DHT22;5494;51.796;10.952;2023-02-19T05:56:32;6.40;99.90
10883;DHT22;5494;51.796;10.952;2023-02-19T05:59:04;6.10;99.90
10883;DHT22;5494;51.796;10.952;2023-02-19T06:01:34;5.90;99.90
10883;DHT22;5494;51.796;10.952;2023-02-19T06:04:04;5.80;99.90
10883;DHT22;5494;51.796;10.952;2023-02-19T06:06:32;5.80;99.90
10883;DHT22;5494;51.796;10.952;2023-02-19T06:09:00;5.80;99.90
10883;DHT22;5494;51.796;10.952;2023-02-19T06:11:28;5.80;99.90
10883;DHT22;5494;51.796;10.952;2023-02-19T06:13:56;5.70;99.90
10883;DHT22;5494;51.796;10.952;2023-02-19T06:16:25;5.60;99.90
10883;DHT22;5494;51.796;10.952;2023-02-19T06:18:54;5.50;99.90
10883;DHT22;5494;51.796;10.952;2023-02-19T06:21:23;5.50;99.90
10883;DHT22;5494;51.796;10.952;2023-02-19T06:23:51;5.50;99.90
10883;DHT22;5494;51.796;10.952;2023-02-19T06:26:21;5.60;99.90
10883;DHT22;5494;51.796;10.952;2023-02-19T06:28:52;5.60;99.90
10883;DHT22;5494;51.796;10.952;2023-02-19T06:31:21;5.60;99.90
10883;DHT22;5494;51.796;10.952;2023-02-19T06:33:49;5.70;99.90
10883;DHT22;5494;51.796;10.952;2023-02-19T06:36:22;5.70;99.90
10883;DHT22;5494;51.796;10.952;2023-02-19T06:38:50;5.80;99.90
10883;DHT22;5494;51.796;10.952;2023-02-19T06:41:19;5.60;99.90
10883;DHT22;5494;51.796;10.952;2023-02-19T06:43:47;5.50;99.90
10883;DHT22;5494;51.796;10.952;2023-02-19T06:46:15;5.50;99.90
10883;DHT22;5494;51.796;10.952;2023-02-19T06:48:44;5.60;99.90
10883;DHT22;5494;51.796;10.952;2023-02-19T06:51:16;5.50;99.90
10883;DHT22;5494;51.796;10.952;2023-02-19T06:53:50;5.50;99.90
10883;DHT22;5494;51.796;10.952;2023-02-19T06:56:24;5.50;99.90
10883;DHT22;5494;51.796;10.952;2023-02-19T06:58:54;5.50;99.90
10883;DHT22;5494;51.796;10.952;2023-02-19T07:01:23;5.70;99.90
10883;DHT22;5494;51.796;10.952;2023-02-19T07:03:51;5.80;99.90
10883;DHT22;5494;51.796;10.952;2023-02-19T07:06:21;5.90;99.90
10883;DHT22;5494;51.796;10.952;2023-02-19T07:08:54;5.90;99.90
10883;DHT22;5494;51.796;10.952;2023-02-19T07:11:28;6.00;99.90
10883;DHT22;5494;51.796;10.952;2023-02-19T07:13:59;5.90;99.90
10883;DHT22;5494;51.796;10.952;2023-02-19T07:16:28;5.90;99.90
10883;DHT22;5494;51.796;10.952;2023-02-19T07:18:57;5.80;99.90
10883;DHT22;5494;51.796;10.952;2023-02-19T07:21:27;5.80;99.90
10883;DHT22;5494;51.796;10.952;2023-02-19T07:23:57;5.80;99.90
10883;DHT22;5494;51.796;10.952;2023-02-19T07:26:28;5.80;99.90
10883;DHT22;5494;51.796;10.952;2023-02-19T07:28:56;5.70;99.90
10883;DHT22;5494;51.796;10.952;2023-02-19T07:31:24;5.70;99.90
10883;DHT22;5494;51.796;10.952;2023-02-19T07:33:52;5.50;99.90
10883;DHT22;5494;51.796;10.952;2023-02-19T07:36:22;5.30;99.90
10883;DHT22;5494;51.796;10.952;2023-02-19T07:38:54;5.00;99.90
10883;DHT22;5494;51.796;10.952;2023-02-19T07:41:25;4.80;99.90
10883;DHT22;5494;51.796;10.952;2023-02-19T07:43:56;4.70;99.90
10883;DHT22;5494;51.796;10.952;2023-02-19T07:46:25;4.70;99.90
10883;DHT22;5494;51.796;10.952;2023-02-19T07:48:53;4.60;99.90
10883;DHT22;5494;51.796;10.952;2023-02-19T07:51:21;4.40;99.90
10883;DHT22;5494;51.796;10.952;2023-02-19T07:53:49;4.40;99.90
10883;DHT22;5494;51.796;10.952;2023-02-19T07:56:18;4.40;99.90
10883;DHT22;5494;51.796;10.952;2023-02-19T07:58:48;4.60;99.90
10883;DHT22;5494;51.796;10.952;2023-02-19T08:01:18;4.70;99.90
10883;DHT22;5494;51.796;10.952;2023-02-19T08:04:11;4.60;99.90
10883;DHT22;5494;51.796;10.952;2023-02-19T08:06:40;4.70;99.90
10883;DHT22;5494;51.796;10.952;2023-02-19T08:09:08;4.60;99.90
10883;DHT22;5494;51.796;10.952;2023-02-19T08:11:36;4.50;99.90
10883;DHT22;5494;51.796;10.952;2023-02-19T08:14:24;4.40;99.90
10883;DHT22;5494;51.796;10.952;2023-02-19T08:16:53;4.40;99.90
10883;DHT22;5494;51.796;10.952;2023-02-19T08:19:22;4.50;99.90
10883;DHT22;5494;51.796;10.952;2023-02-19T08:21:50;4.60;99.90
10883;DHT22;5494;51.796;10.952;2023-02-19T08:24:19;4.40;99.90
10883;DHT22;5494;51.796;10.952;2023-02-19T08:26:47;5.90;99.90
10883;DHT22;5494;51.796;10.952;2023-02-19T08:29:15;4.20;99.90
10883;DHT22;5494;51.796;10.952;2023-02-19T08:31:44;4.10;99.90
10883;DHT22;5494;51.796;10.952;2023-02-19T08:34:12;4.10;99.90
10883;DHT22;5494;51.796;10.952;2023-02-19T08:36:40;4.20;99.90
10883;DHT22;5494;51.796;10.952;2023-02-19T08:39:09;4.30;99.90
10883;DHT22;5494;51.796;10.952;2023-02-19T08:41:37;4.30;99.90
10883;DHT22;5494;51.796;10.952;2023-02-19T08:44:05;4.40;99.90
10883;DHT22;5494;51.796;10.952;2023-02-19T08:46:33;4.50;99.90
10883;DHT22;5494;51.796;10.952;2023-02-19T08:49:02;4.70;99.90
10883;DHT22;5494;51.796;10.952;2023-02-19T08:51:30;4.80;99.90
10883;DHT22;5494;51.796;10.952;2023-02-19T08:54:01;4.90;99.90
10883;DHT22;5494;51.796;10.952;2023-02-19T08:56:29;5.00;99.90
10883;DHT22;5494;51.796;10.952;2023-02-19T08:58:57;5.10;99.90
10883;DHT22;5494;51.796;10.952;2023-02-19T09:01:25;5.20;99.90
10883;DHT22;5494;51.796;10.952;2023-02-19T09:03:53;5.20;99.90
10883;DHT22;5494;51.796;10.952;2023-02-19T09:06:23;5.30;99.90
10883;DHT22;5494;51.796;10.952;2023-02-19T09:08:51;5.30;99.90
10883;DHT22;5494;51.796;10.952;2023-02-19T09:11:19;5.30;99.90
10883;DHT22;5494;51.796;10.952;2023-02-19T09:13:47;5.40;99.90
10883;DHT22;5494;51.796;10.952;2023-02-19T09:16:18;5.50;99.90
10883;DHT22;5494;51.796;10.952;2023-02-19T09:18:46;5.50;99.90
10883;DHT22;5494;51.796;10.952;2023-02-19T09:21:14;5.60;99.90
10883;DHT22;5494;51.796;10.952;2023-02-19T09:23:43;5.70;99.90
10883;DHT22;5494;51.796;10.952;2023-02-19T09:26:11;5.70;99.90
10883;DHT22;5494;51.796;10.952;2023-02-19T09:28:39;5.80;99.90
10883;DHT22;5494;51.796;10.952;2023-02-19T09:31:09;5.90;99.90
10883;DHT22;5494;51.796;10.952;2023-02-19T09:33:44;6.00;99.90
10883;DHT22;5494;51.796;10.952;2023-02-19T09:36:13;6.20;99.90
10883;DHT22;5494;51.796;10.952;2023-02-19T09:38:44;6.40;99.90
10883;DHT22;5494;51.796;10.952;2023-02-19T09:41:17;6.50;99.90
10883;DHT22;5494;51.796;10.952;2023-02-19T09:43:50;6.60;99.90
10883;DHT22;5494;51.796;10.952;2023-02-19T09:46:26;6.70;99.90
10883;DHT22;5494;51.796;10.952;2023-02-19T09:49:02;6.70;99.90
10883;DHT22;5494;51.796;10.952;2023-02-19T09:51:35;6.80;99.90
10883;DHT22;5494;51.796;10.952;2023-02-19T09:54:12;6.90;99.90
10883;DHT22;5494;51.796;10.952;2023-02-19T09:56:47;7.00;99.90
10883;DHT22;5494;51.796;10.952;2023-02-19T09:59:18;7.20;99.90
10883;DHT22;5494;51.796;10.952;2023-02-19T10:01:53;7.40;99.90
10883;DHT22;5494;51.796;10.952;2023-02-19T10:04:26;7.70;99.90
10883;DHT22;5494;51.796;10.952;2023-02-19T10:06:56;8.00;99.90
10883;DHT22;5494;51.796;10.952;2023-02-19T10:09:30;8.20;99.90
10883;DHT22;5494;51.796;10.952;2023-02-19T10:11:58;8.30;99.90
10883;DHT22;5494;51.796;10.952;2023-02-19T10:14:31;8.30;99.90
10883;DHT22;5494;51.796;10.952;2023-02-19T10:17:04;8.40;99.90
10883;DHT22;5494;51.796;10.952;2023-02-19T10:19:35;8.30;99.90
10883;DHT22;5494;51.796;10.952;2023-02-19T10:22:03;8.30;99.90
10883;DHT22;5494;51.796;10.952;2023-02-19T10:24:33;8.40;99.90
10883;DHT22;5494;51.796;10.952;2023-02-19T10:27:07;8.40;99.90
10883;DHT22;5494;51.796;10.952;2023-02-19T10:29:38;8.40;99.90
10883;DHT22;5494;51.796;10.952;2023-02-19T10:32:17;8.60;99.90
10883;DHT22;5494;51.796;10.952;2023-02-19T10:35:07;8.60;99.90
10883;DHT22;5494;51.796;10.952;2023-02-19T10:37:42;8.70;99.90
10883;DHT22;5494;51.796;10.952;2023-02-19T10:40:19;8.90;99.90
10883;DHT22;5494;51.796;10.952;2023-02-19T10:42:50;9.20;99.90
10883;DHT22;5494;51.796;10.952;2023-02-19T10:45:23;9.30;99.90
10883;DHT22;5494;51.796;10.952;2023-02-19T10:48:00;9.30;99.90
10883;DHT22;5494;51.796;10.952;2023-02-19T10:50:31;9.40;99.90
10883;DHT22;5494;51.796;10.952;2023-02-19T10:53:04;9.30;99.90
10883;DHT22;5494;51.796;10.952;2023-02-19T10:55:35;9.30;99.90
10883;DHT22;5494;51.796;10.952;2023-02-19T10:58:22;9.30;99.90
10883;DHT22;5494;51.796;10.952;2023-02-19T11:01:10;9.20;99.90
10883;DHT22;5494;51.796;10.952;2023-02-19T11:03:41;9.20;99.90
10883;DHT22;5494;51.796;10.952;2023-02-19T11:06:12;9.10;99.90
10883;DHT22;5494;51.796;10.952;2023-02-19T11:08:48;9.10;99.90
10883;DHT22;5494;51.796;10.952;2023-02-19T11:11:27;8.80;99.90
10883;DHT22;5494;51.796;10.952;2023-02-19T11:14:00;8.80;99.90
10883;DHT22;5494;51.796;10.952;2023-02-19T11:16:41;9.00;99.90
10883;DHT22;5494;51.796;10.952;2023-02-19T11:19:34;8.90;99.90
10883;DHT22;5494;51.796;10.952;2023-02-19T11:22:26;9.00;99.90
10883;DHT22;5494;51.796;10.952;2023-02-19T11:25:02;9.00;99.90
10883;DHT22;5494;51.796;10.952;2023-02-19T11:27:34;8.90;99.90
10883;DHT22;5494;51.796;10.952;2023-02-19T11:30:30;8.70;99.90
10883;DHT22;5494;51.796;10.952;2023-02-19T11:33:21;8.60;99.90
10883;DHT22;5494;51.796;10.952;2023-02-19T11:38:57;8.60;99.90
10883;DHT22;5494;51.796;10.952;2023-02-19T11:41:45;8.30;99.90
10883;DHT22;5494;51.796;10.952;2023-02-19T11:44:37;8.10;99.90
10883;DHT22;5494;51.796;10.952;2023-02-19T11:47:31;8.10;99.90
10883;DHT22;5494;51.796;10.952;2023-02-19T11:50:27;8.10;99.90
10883;DHT22;5494;51.796;10.952;2023-02-19T11:53:16;8.30;99.90
10883;DHT22;5494;51.796;10.952;2023-02-19T11:55:59;8.30;99.90
10883;DHT22;5494;51.796;10.952;2023-02-19T11:58:59;8.30;99.90
10883;DHT22;5494;51.796;10.952;2023-02-19T12:02:10;8.30;99.90
10883;DHT22;5494;51.796;10.952;2023-02-19T12:05:17;8.20;99.90
10883;DHT22;5494;51.796;10.952;2023-02-19T12:08:09;8.20;99.90
10883;DHT22;5494;51.796;10.952;2023-02-19T12:11:10;8.10;99.90
10883;DHT22;5494;51.796;10.952;2023-02-19T12:14:11;8.00;99.90
10883;DHT22;5494;51.796;10.952;2023-02-19T12:16:58;8.10;99.90
10883;DHT22;5494;51.796;10.952;2023-02-19T12:19:43;8.30;99.90
10883;DHT22;5494;51.796;10.952;2023-02-19T12:22:28;8.40;99.90
10883;DHT22;5494;51.796;10.952;2023-02-19T12:25:24;8.30;99.90
10883;DHT22;5494;51.796;10.952;2023-02-19T12:28:17;8.10;99.90
10883;DHT22;5494;51.796;10.952;2023-02-19T12:31:09;8.10;99.90
10883;DHT22;5494;51.796;10.952;2023-02-19T12:34:14;8.20;99.90
10883;DHT22;5494;51.796;10.952;2023-02-19T12:37:11;8.20;99.90
10883;DHT22;5494;51.796;10.952;2023-02-19T12:39:58;8.30;99.90
10883;DHT22;5494;51.796;10.952;2023-02-19T12:42:50;8.30;99.90
10883;DHT22;5494;51.796;10.952;2023-02-19T12:45:32;8.20;99.90
10883;DHT22;5494;51.796;10.952;2023-02-19T12:48:11;8.10;99.90
10883;DHT22;5494;51.796;10.952;2023-02-19T12:50:47;8.00;99.90
10883;DHT22;5494;51.796;10.952;2023-02-19T12:53:30;7.90;99.90
10883;DHT22;5494;51.796;10.952;2023-02-19T12:56:09;7.80;99.90
10883;DHT22;5494;51.796;10.952;2023-02-19T12:58:44;7.80;99.90
10883;DHT22;5494;51.796;10.952;2023-02-19T13:01:18;7.70;99.90
10883;DHT22;5494;51.796;10.952;2023-02-19T13:04:05;7.70;99.90
10883;DHT22;5494;51.796;10.952;2023-02-19T13:06:47;7.60;99.90
10883;DHT22;5494;51.796;10.952;2023-02-19T13:09:24;7.70;99.90
10883;DHT22;5494;51.796;10.952;2023-02-19T13:12:02;7.80;99.90
10883;DHT22;5494;51.796;10.952;2023-02-19T13:14:38;7.90;99.90
10883;DHT22;5494;51.796;10.952;2023-02-19T13:17:18;7.90;99.90
10883;DHT22;5494;51.796;10.952;2023-02-19T13:19:54;8.00;99.90
10883;DHT22;5494;51.796;10.952;2023-02-19T13:22:30;8.00;99.90
10883;DHT22;5494;51.796;10.952;2023-02-19T13:25:29;7.90;99.90
10883;DHT22;5494;51.796;10.952;2023-02-19T13:28:13;7.80;99.90
10883;DHT22;5494;51.796;10.952;2023-02-19T13:31:13;7.70;99.90
10883;DHT22;5494;51.796;10.952;2023-02-19T13:34:03;7.60;99.90
10883;DHT22;5494;51.796;10.952;2023-02-19T13:36:41;7.60;99.90
10883;DHT22;5494;51.796;10.952;2023-02-19T13:39:12;7.60;99.90
10883;DHT22;5494;51.796;10.952;2023-02-19T13:41:49;7.60;99.90
10883;DHT22;5494;51.796;10.952;2023-02-19T13:44:19;7.60;99.90
10883;DHT22;5494;51.796;10.952;2023-02-19T13:46:49;7.60;99.90
10883;DHT22;5494;51.796;10.952;2023-02-19T13:49:42;7.70;99.90
10883;DHT22;5494;51.796;10.952;2023-02-19T13:52:40;7.60;99.90
10883;DHT22;5494;51.796;10.952;2023-02-19T13:55:42;7.60;99.90
10883;DHT22;5494;51.796;10.952;2023-02-19T14:04:58;7.90;99.90
10883;DHT22;5494;51.796;10.952;2023-02-19T14:07:48;7.90;99.90
10883;DHT22;5494;51.796;10.952;2023-02-19T14:14:00;7.80;99.90
10883;DHT22;5494;51.796;10.952;2023-02-19T14:17:00;7.70;99.90
10883;DHT22;5494;51.796;10.952;2023-02-19T14:19:50;7.60;99.90
10883;DHT22;5494;51.796;10.952;2023-02-19T14:22:45;7.60;99.90
10883;DHT22;5494;51.796;10.952;2023-02-19T14:25:43;7.50;99.90
10883;DHT22;5494;51.796;10.952;2023-02-19T14:28:35;7.50;99.90
10883;DHT22;5494;51.796;10.952;2023-02-19T14:31:16;7.40;99.90
10883;DHT22;5494;51.796;10.952;2023-02-19T14:33:50;7.50;99.90
10883;DHT22;5494;51.796;10.952;2023-02-19T14:36:31;7.50;99.90
10883;DHT22;5494;51.796;10.952;2023-02-19T14:39:04;7.50;99.90
10883;DHT22;5494;51.796;10.952;2023-02-19T14:41:40;7.60;99.90
10883;DHT22;5494;51.796;10.952;2023-02-19T14:44:16;7.50;99.90
10883;DHT22;5494;51.796;10.952;2023-02-19T14:46:55;7.50;99.90
10883;DHT22;5494;51.796;10.952;2023-02-19T14:49:29;7.50;99.90
10883;DHT22;5494;51.796;10.952;2023-02-19T14:52:07;7.40;99.90
10883;DHT22;5494;51.796;10.952;2023-02-19T14:54:45;7.40;99.90
10883;DHT22;5494;51.796;10.952;2023-02-19T14:57:20;7.30;99.90
10883;DHT22;5494;51.796;10.952;2023-02-19T14:59:52;7.30;99.90
10883;DHT22;5494;51.796;10.952;2023-02-19T15:02:22;7.20;99.90
10883;DHT22;5494;51.796;10.952;2023-02-19T15:04:52;7.10;99.90
10883;DHT22;5494;51.796;10.952;2023-02-19T15:07:23;7.10;99.90
10883;DHT22;5494;51.796;10.952;2023-02-19T15:09:56;7.00;99.90
10883;DHT22;5494;51.796;10.952;2023-02-19T15:12:33;7.10;99.90
10883;DHT22;5494;51.796;10.952;2023-02-19T15:15:14;7.10;99.90
10883;DHT22;5494;51.796;10.952;2023-02-19T15:17:45;7.10;99.90
10883;DHT22;5494;51.796;10.952;2023-02-19T15:20:17;7.10;99.90
10883;DHT22;5494;51.796;10.952;2023-02-19T15:22:47;7.00;99.90
10883;DHT22;5494;51.796;10.952;2023-02-19T15:25:18;7.10;99.90
10883;DHT22;5494;51.796;10.952;2023-02-19T15:27:48;7.10;99.90
10883;DHT22;5494;51.796;10.952;2023-02-19T15:30:21;7.00;99.90
10883;DHT22;5494;51.796;10.952;2023-02-19T15:32:53;7.00;99.90
10883;DHT22;5494;51.796;10.952;2023-02-19T15:35:23;6.90;99.90
10883;DHT22;5494;51.796;10.952;2023-02-19T15:37:53;6.80;99.90
10883;DHT22;5494;51.796;10.952;2023-02-19T15:40:25;6.80;99.90
10883;DHT22;5494;51.796;10.952;2023-02-19T15:42:57;6.80;99.90
10883;DHT22;5494;51.796;10.952;2023-02-19T15:45:28;6.70;99.90
10883;DHT22;5494;51.796;10.952;2023-02-19T15:48:07;6.70;99.90
10883;DHT22;5494;51.796;10.952;2023-02-19T15:50:43;6.70;99.90
10883;DHT22;5494;51.796;10.952;2023-02-19T15:53:16;6.70;99.90
10883;DHT22;5494;51.796;10.952;2023-02-19T15:55:58;6.60;99.90
10883;DHT22;5494;51.796;10.952;2023-02-19T15:58:33;6.50;99.90
10883;DHT22;5494;51.796;10.952;2023-02-19T16:01:12;6.40;99.90
10883;DHT22;5494;51.796;10.952;2023-02-19T16:03:47;6.40;99.90
10883;DHT22;5494;51.796;10.952;2023-02-19T16:06:16;6.30;99.90
10883;DHT22;5494;51.796;10.952;2023-02-19T16:08:57;6.20;99.90
10883;DHT22;5494;51.796;10.952;2023-02-19T16:11:34;6.20;99.90
10883;DHT22;5494;51.796;10.952;2023-02-19T16:14:17;6.10;99.90
10883;DHT22;5494;51.796;10.952;2023-02-19T16:16:52;6.00;99.90
10883;DHT22;5494;51.796;10.952;2023-02-19T16:19:26;5.90;99.90
10883;DHT22;5494;51.796;10.952;2023-02-19T16:21:56;5.90;99.90
10883;DHT22;5494;51.796;10.952;2023-02-19T16:24:30;5.80;99.90
10883;DHT22;5494;51.796;10.952;2023-02-19T16:27:03;5.70;99.90
10883;DHT22;5494;51.796;10.952;2023-02-19T16:29:33;5.60;99.90
10883;DHT22;5494;51.796;10.952;2023-02-19T16:32:03;5.60;99.90
10883;DHT22;5494;51.796;10.952;2023-02-19T16:34:39;5.50;99.90
10883;DHT22;5494;51.796;10.952;2023-02-19T16:37:32;5.40;99.90
10883;DHT22;5494;51.796;10.952;2023-02-19T16:43:29;5.30;99.90
10883;DHT22;5494;51.796;10.952;2023-02-19T16:46:09;5.20;99.90
10883;DHT22;5494;51.796;10.952;2023-02-19T16:48:38;5.10;99.90
10883;DHT22;5494;51.796;10.952;2023-02-19T16:51:10;5.00;99.90
10883;DHT22;5494;51.796;10.952;2023-02-19T16:53:44;4.90;99.90
10883;DHT22;5494;51.796;10.952;2023-02-19T16:56:15;4.80;99.90